| Servicio Meteorologico Nacional.

Pronóstico antártico

Pronóstico antártico

TAF Marambio
 

FTAA SAWB 271100
TAF SAWB 271100Z 2712/2812 20010KT 9999 BKN015 OVC060 TXM04/2808Z TNM17/2712Z
PROB40 TEMPO 2712/2716 0800 -SN FZFG OVC008
BECMG 2717/2719 32010KT 9999 BKN008
BECMG 2721/2723 34030G40KT CAVOK
BECMG 2808/2810 34020KT 5000 BR BKN005
PROB40 2810/2812 0800 -SN FZFG OVC005=